createdAt,value
2018-12-15T00:00:37.316Z,54.57
2018-12-15T00:03:06.787Z,52.68
2018-12-15T00:05:36.363Z,52.20
2018-12-15T00:08:05.206Z,54.59
2018-12-15T00:10:34.935Z,53.22
2018-12-15T00:13:05.108Z,52.21
2018-12-15T00:15:35.023Z,52.85
2018-12-15T00:18:04.678Z,54.15
2018-12-15T00:20:33.584Z,54.88
2018-12-15T00:23:04.673Z,55.61
2018-12-15T00:25:33.912Z,55.59
2018-12-15T00:28:03.695Z,55.87
2018-12-15T00:30:33.894Z,54.98
2018-12-15T00:33:03.785Z,54.29
2018-12-15T00:35:33.926Z,52.44
2018-12-15T00:38:04.467Z,52.19
2018-12-15T00:40:33.069Z,52.96
2018-12-15T00:43:03.415Z,51.64
2018-12-15T00:45:33.056Z,51.55
2018-12-15T00:48:04.516Z,51.18
2018-12-15T00:50:34.207Z,54.28
2018-12-15T00:53:03.846Z,53.39
2018-12-15T00:55:33.013Z,53.00
2018-12-15T00:58:03.074Z,53.96
2018-12-15T01:00:34.154Z,53.69
2018-12-15T01:03:03.802Z,52.93
2018-12-15T01:05:33.708Z,54.03
2018-12-15T01:08:02.938Z,55.18
2018-12-15T01:10:32.733Z,53.93
2018-12-15T01:13:02.533Z,53.13
2018-12-15T01:15:38.929Z,52.67
2018-12-15T01:18:09.138Z,53.99
2018-12-15T01:20:38.494Z,52.85
2018-12-15T01:23:07.009Z,53.20
2018-12-15T01:25:37.338Z,55.92
2018-12-15T01:28:07.179Z,56.07
2018-12-15T01:30:36.775Z,54.25
2018-12-15T01:33:09.266Z,52.66
2018-12-15T01:35:39.430Z,53.97
2018-12-15T01:38:08.055Z,54.47
2018-12-15T01:40:36.605Z,53.46
2018-12-15T01:43:06.058Z,53.96
2018-12-15T01:45:35.765Z,52.72
2018-12-15T01:48:05.881Z,53.61
2018-12-15T01:50:34.645Z,52.80
2018-12-15T01:53:04.997Z,54.38
2018-12-15T01:55:37.930Z,53.23
2018-12-15T01:58:07.433Z,52.77
2018-12-15T02:00:36.541Z,51.85
2018-12-15T02:03:07.024Z,51.84
2018-12-15T02:05:35.576Z,51.32
2018-12-15T02:08:05.415Z,51.53
2018-12-15T02:10:35.175Z,51.96
2018-12-15T02:13:04.371Z,53.60
2018-12-15T02:15:33.358Z,51.70
2018-12-15T02:19:31.504Z,54.30
2018-12-15T02:22:01.061Z,53.30
2018-12-15T02:24:30.497Z,52.53
2018-12-15T02:26:59.862Z,54.60
2018-12-15T02:29:29.953Z,53.46
2018-12-15T02:32:01.879Z,52.76
2018-12-15T02:34:31.794Z,52.80
2018-12-15T02:37:00.957Z,52.36
2018-12-15T02:39:30.490Z,52.44
2018-12-15T02:41:59.990Z,52.97
2018-12-15T02:44:29.278Z,52.33
2018-12-15T02:46:58.161Z,52.20
2018-12-15T02:49:26.754Z,53.16
2018-12-15T02:51:55.282Z,51.90
2018-12-15T02:54:24.963Z,51.74
2018-12-15T02:56:54.532Z,50.29
2018-12-15T02:59:24.387Z,52.14
2018-12-15T03:01:55.520Z,51.83
2018-12-15T03:04:24.553Z,52.55
2018-12-15T03:06:53.801Z,52.43
2018-12-15T03:09:22.657Z,54.13
2018-12-15T03:12:00.683Z,54.64
2018-12-15T03:14:30.296Z,53.46
2018-12-15T03:17:07.436Z,53.39
2018-12-15T03:19:37.479Z,52.37
2018-12-15T03:22:06.065Z,52.97
2018-12-15T03:24:38.055Z,52.53
2018-12-15T03:27:07.599Z,52.57
2018-12-15T03:29:37.059Z,52.79
2018-12-15T03:32:06.771Z,52.31
2018-12-15T03:34:36.550Z,51.42
2018-12-15T03:37:07.558Z,51.03
2018-12-15T03:39:37.690Z,51.51
2018-12-15T03:42:14.149Z,51.40
2018-12-15T03:44:45.457Z,52.13
2018-12-15T03:47:15.594Z,50.96
2018-12-15T03:49:44.760Z,51.49
2018-12-15T03:52:14.956Z,52.34
2018-12-15T03:54:44.964Z,51.44
2018-12-15T03:57:14.342Z,53.95
2018-12-15T03:59:43.862Z,52.35
2018-12-15T04:02:14.098Z,51.20
2018-12-15T04:04:44.135Z,52.86
2018-12-15T04:07:14.201Z,51.21
2018-12-15T04:09:43.401Z,51.46
2018-12-15T04:12:12.697Z,52.02
2018-12-15T04:14:41.511Z,52.66
2018-12-15T04:17:11.727Z,51.96
2018-12-15T04:19:40.303Z,50.71
2018-12-15T04:22:21.954Z,51.44
2018-12-15T04:24:50.491Z,52.26
2018-12-15T04:27:21.763Z,52.67
2018-12-15T04:29:51.061Z,51.85
2018-12-15T04:32:19.930Z,51.46
2018-12-15T04:34:49.030Z,50.97
2018-12-15T04:37:20.059Z,52.03
2018-12-15T04:39:49.403Z,51.63
2018-12-15T04:42:20.178Z,52.08
2018-12-15T04:44:50.975Z,52.26
2018-12-15T04:47:21.112Z,55.36
2018-12-15T04:49:49.690Z,54.37
2018-12-15T04:52:21.206Z,54.25
2018-12-15T04:54:51.223Z,53.26
2018-12-15T04:57:27.083Z,54.29
2018-12-15T04:59:56.657Z,53.80
2018-12-15T05:02:25.967Z,53.51
2018-12-15T05:05:01.423Z,56.07
2018-12-15T05:07:30.137Z,54.38
2018-12-15T05:10:00.290Z,52.65
2018-12-15T05:12:29.243Z,54.08
2018-12-15T05:14:57.895Z,54.34
2018-12-15T05:17:27.591Z,53.10
2018-12-15T05:19:56.953Z,54.57
2018-12-15T05:22:26.407Z,53.82
2018-12-15T05:24:55.625Z,54.14
2018-12-15T05:27:28.175Z,55.74
2018-12-15T05:29:58.057Z,54.58
2018-12-15T05:32:27.539Z,54.51
2018-12-15T05:34:57.078Z,54.61
2018-12-15T05:37:28.808Z,55.14
2018-12-15T05:39:57.879Z,54.24
2018-12-15T05:42:27.052Z,53.65
2018-12-15T05:44:58.388Z,53.23
2018-12-15T05:47:29.581Z,54.31
2018-12-15T05:49:58.197Z,55.35
2018-12-15T05:59:14.246Z,56.53
2018-12-15T06:01:43.123Z,56.96
2018-12-15T06:04:13.723Z,57.18
2018-12-15T06:06:42.542Z,56.56
2018-12-15T06:09:12.650Z,55.32
2018-12-15T06:11:43.143Z,54.77
2018-12-15T06:14:15.466Z,53.81
2018-12-15T06:16:47.317Z,54.36
2018-12-15T06:19:20.355Z,54.39
2018-12-15T06:21:50.544Z,54.46
2018-12-15T06:24:20.170Z,54.46
2018-12-15T06:26:50.646Z,53.84
2018-12-15T06:29:19.822Z,56.60
2018-12-15T06:31:50.873Z,55.45
2018-12-15T06:34:20.930Z,53.28
2018-12-15T06:36:50.771Z,54.03
2018-12-15T06:39:21.765Z,53.75
2018-12-15T06:41:52.626Z,53.39
2018-12-15T06:44:22.945Z,54.38
2018-12-15T06:46:55.490Z,54.47
2018-12-15T06:52:21.148Z,54.30
2018-12-15T06:54:49.799Z,54.90
2018-12-15T06:57:19.194Z,55.35
2018-12-15T06:59:48.521Z,55.55
2018-12-15T07:02:17.390Z,54.67
2018-12-15T07:04:50.559Z,54.07
2018-12-15T07:07:20.151Z,53.59
2018-12-15T07:09:51.126Z,52.58
2018-12-15T07:12:19.655Z,52.34
2018-12-15T07:14:48.288Z,51.78
2018-12-15T07:17:17.002Z,50.61
2018-12-15T07:19:48.449Z,52.84
2018-12-15T07:22:18.049Z,51.31
2018-12-15T07:24:49.022Z,51.33
2018-12-15T07:27:18.179Z,50.95
2018-12-15T07:29:48.161Z,49.77
2018-12-15T07:32:18.060Z,50.66
2018-12-15T07:34:48.074Z,49.28
2018-12-15T07:37:16.613Z,49.69
2018-12-15T07:39:47.301Z,50.89
2018-12-15T07:42:17.930Z,50.70
2018-12-15T07:44:48.075Z,53.02
2018-12-15T07:47:17.815Z,52.82
2018-12-15T07:49:47.222Z,51.73
2018-12-15T07:52:18.280Z,51.67
2018-12-15T07:54:46.962Z,51.18
2018-12-15T07:57:16.241Z,51.68
2018-12-15T07:59:45.102Z,52.40
2018-12-15T08:02:17.243Z,50.70
2018-12-15T08:04:46.187Z,52.23
2018-12-15T08:07:16.568Z,51.80
2018-12-15T08:09:49.308Z,51.13
2018-12-15T08:12:23.631Z,52.10
2018-12-15T08:14:52.208Z,53.76
2018-12-15T08:17:22.262Z,51.83
2018-12-15T08:19:52.350Z,52.68
2018-12-15T08:22:26.293Z,51.55
2018-12-15T08:24:54.947Z,52.94
2018-12-15T08:27:23.487Z,52.59
2018-12-15T08:29:54.670Z,53.52
2018-12-15T08:32:23.946Z,51.95
2018-12-15T08:34:53.317Z,50.74
2018-12-15T08:37:22.823Z,51.94
2018-12-15T08:39:52.319Z,51.29
2018-12-15T08:42:22.134Z,52.17
2018-12-15T08:44:52.197Z,51.38
2018-12-15T08:47:21.148Z,51.05
2018-12-15T08:49:52.037Z,52.12
2018-12-15T08:52:21.215Z,51.53
2018-12-15T08:54:50.760Z,52.74
2018-12-15T08:57:26.021Z,53.40
2018-12-15T08:59:55.826Z,54.38
2018-12-15T09:02:25.302Z,53.94
2018-12-15T09:04:56.335Z,53.96
2018-12-15T09:07:25.477Z,53.47
2018-12-15T09:09:54.770Z,53.21
2018-12-15T09:12:25.226Z,55.81
2018-12-15T09:14:53.866Z,54.64
2018-12-15T09:17:23.296Z,55.48
2018-12-15T09:19:52.566Z,55.74
2018-12-15T09:22:22.065Z,54.86
2018-12-15T09:24:53.448Z,55.35
2018-12-15T09:27:23.582Z,53.45
2018-12-15T09:29:55.205Z,53.84
2018-12-15T09:32:26.231Z,53.87
2018-12-15T09:34:55.700Z,54.53
2018-12-15T09:37:24.437Z,53.91
2018-12-15T09:39:53.871Z,54.73
2018-12-15T09:42:24.242Z,54.33
2018-12-15T09:44:53.028Z,55.70
2018-12-15T09:47:21.669Z,55.22
2018-12-15T09:49:52.444Z,56.64
2018-12-15T09:52:22.801Z,56.48
2018-12-15T09:54:53.162Z,55.15
2018-12-15T09:57:21.811Z,55.58
2018-12-15T09:59:52.035Z,53.55
2018-12-15T10:02:21.832Z,52.61
2018-12-15T10:04:51.180Z,52.75
2018-12-15T10:07:23.563Z,52.95
2018-12-15T10:09:52.936Z,51.99
2018-12-15T10:12:23.196Z,52.18
2018-12-15T10:14:52.181Z,52.61
2018-12-15T10:17:22.366Z,52.63
2018-12-15T10:19:52.938Z,52.89
2018-12-15T10:22:21.858Z,53.22
2018-12-15T10:24:52.105Z,53.58
2018-12-15T10:27:22.330Z,55.63
2018-12-15T10:29:56.281Z,57.14
2018-12-15T10:32:30.515Z,56.58
2018-12-15T10:35:00.183Z,54.02
2018-12-15T10:37:28.788Z,55.78
2018-12-15T10:40:00.534Z,55.53
2018-12-15T10:42:29.423Z,52.78
2018-12-15T10:44:59.972Z,54.16
2018-12-15T10:47:29.003Z,52.82
2018-12-15T10:49:58.292Z,53.54
2018-12-15T10:52:27.177Z,54.00
2018-12-15T10:54:56.787Z,52.35
2018-12-15T10:57:25.373Z,52.33
2018-12-15T10:59:54.154Z,52.14
2018-12-15T11:02:23.605Z,51.55
2018-12-15T11:04:52.506Z,51.04
2018-12-15T11:07:23.461Z,49.78
2018-12-15T11:09:53.108Z,50.85
2018-12-15T11:12:21.689Z,51.28
2018-12-15T11:14:51.182Z,54.49
2018-12-15T11:17:21.311Z,54.59
2018-12-15T11:19:51.284Z,56.62
2018-12-15T11:22:20.443Z,57.49
2018-12-15T11:24:50.504Z,57.77
2018-12-15T11:27:19.075Z,57.23
2018-12-15T11:29:49.973Z,56.03
2018-12-15T11:32:20.114Z,57.81
2018-12-15T11:34:49.654Z,56.53
2018-12-15T11:37:18.455Z,57.90
2018-12-15T11:39:48.792Z,57.04
2018-12-15T11:42:27.982Z,55.98
2018-12-15T11:44:57.631Z,56.41
2018-12-15T11:47:27.126Z,54.98
2018-12-15T11:50:00.558Z,54.09
2018-12-15T11:52:29.153Z,53.18
2018-12-15T11:54:58.145Z,53.98
2018-12-15T11:57:27.751Z,54.70
2018-12-15T11:59:57.665Z,53.09
2018-12-15T12:02:31.897Z,54.34
2018-12-15T12:05:00.192Z,54.67
2018-12-15T12:07:29.222Z,52.51
2018-12-15T12:09:58.105Z,51.71
2018-12-15T12:12:28.164Z,53.38
2018-12-15T12:14:56.708Z,53.90
2018-12-15T12:17:25.432Z,54.90
2018-12-15T12:19:56.042Z,54.44
2018-12-15T12:22:25.922Z,53.54
2018-12-15T12:24:55.464Z,52.10
2018-12-15T12:27:26.437Z,53.49
2018-12-15T12:29:55.897Z,52.10
2018-12-15T12:32:24.657Z,52.80
2018-12-15T12:34:54.193Z,52.63
2018-12-15T12:37:25.964Z,53.30
2018-12-15T12:39:57.323Z,54.83
2018-12-15T12:42:26.774Z,54.14
2018-12-15T12:44:56.903Z,54.13
2018-12-15T12:47:26.200Z,53.44
2018-12-15T12:49:57.003Z,54.24
2018-12-15T12:52:27.913Z,54.80
2018-12-15T12:54:58.754Z,55.64
2018-12-15T12:57:28.015Z,55.46
2018-12-15T12:59:57.281Z,54.48
2018-12-15T13:02:26.257Z,54.42
2018-12-15T13:04:55.157Z,55.80
2018-12-15T13:07:25.907Z,55.51
2018-12-15T13:09:54.623Z,55.63
2018-12-15T13:12:26.080Z,55.83
2018-12-15T13:14:56.231Z,53.52
2018-12-15T13:17:27.000Z,53.47
2018-12-15T13:20:03.774Z,53.62
2018-12-15T13:22:33.916Z,53.04
2018-12-15T13:25:04.381Z,54.33
2018-12-15T13:27:34.979Z,54.76
2018-12-15T13:30:04.488Z,55.59
2018-12-15T13:32:33.940Z,55.30
2018-12-15T13:35:03.054Z,56.68
2018-12-15T13:37:32.930Z,56.55
2018-12-15T13:40:03.775Z,56.51
2018-12-15T13:42:32.888Z,56.21
2018-12-15T13:45:01.984Z,54.59
2018-12-15T13:47:31.713Z,56.99
2018-12-15T13:50:02.494Z,54.35
2018-12-15T13:52:31.802Z,54.20
2018-12-15T13:55:01.061Z,55.93
2018-12-15T13:57:29.935Z,56.05
2018-12-15T13:59:58.702Z,55.34
2018-12-15T14:02:28.375Z,53.92
2018-12-15T14:04:57.811Z,54.39
2018-12-15T14:07:28.135Z,54.89
2018-12-15T14:09:57.519Z,55.66
2018-12-15T14:12:26.033Z,53.22
2018-12-15T14:14:57.684Z,54.45
2018-12-15T14:17:27.898Z,52.66
2018-12-15T14:19:57.692Z,53.34
2018-12-15T14:22:27.856Z,54.65
2018-12-15T14:24:56.963Z,54.40
2018-12-15T14:27:26.088Z,56.38
2018-12-15T14:29:54.707Z,57.30
2018-12-15T14:32:24.504Z,55.51
2018-12-15T14:34:53.722Z,56.55
2018-12-15T14:37:22.722Z,54.82
2018-12-15T14:39:52.251Z,55.54
2018-12-15T14:42:22.019Z,53.86
2018-12-15T14:44:52.026Z,54.72
2018-12-15T14:47:21.490Z,53.37
2018-12-15T14:49:50.415Z,53.63
2018-12-15T14:52:19.247Z,55.16
2018-12-15T14:54:49.015Z,55.82
2018-12-15T14:57:23.114Z,55.24
2018-12-15T14:59:52.770Z,56.15
2018-12-15T15:02:23.478Z,55.77
2018-12-15T15:04:54.308Z,56.15
2018-12-15T15:07:24.307Z,55.41
2018-12-15T15:09:54.399Z,55.28
2018-12-15T15:12:26.060Z,55.60
2018-12-15T15:14:56.512Z,56.36
2018-12-15T15:17:26.238Z,56.03
2018-12-15T15:19:55.805Z,55.95
2018-12-15T15:22:25.978Z,57.40
2018-12-15T15:24:58.959Z,55.11
2018-12-15T15:27:28.875Z,56.06
2018-12-15T15:29:59.974Z,55.75
2018-12-15T15:32:29.050Z,58.54
2018-12-15T15:34:58.046Z,57.19
2018-12-15T15:37:27.555Z,55.71
2018-12-15T15:39:56.619Z,55.77
2018-12-15T15:42:25.764Z,55.03
2018-12-15T15:44:54.928Z,57.21
2018-12-15T15:47:24.305Z,56.97
2018-12-15T15:49:53.694Z,56.85
2018-12-15T15:52:25.433Z,58.52
2018-12-15T15:54:55.044Z,58.02
2018-12-15T15:57:24.552Z,58.58
2018-12-15T15:59:54.873Z,58.68
2018-12-15T16:02:23.902Z,60.18
2018-12-15T16:04:55.784Z,60.30
2018-12-15T16:07:25.431Z,60.03
2018-12-15T16:09:54.691Z,58.42
2018-12-15T16:12:24.892Z,59.30
2018-12-15T16:14:53.815Z,55.84
2018-12-15T16:17:24.019Z,57.95
2018-12-15T16:19:53.164Z,57.26
2018-12-15T16:22:23.330Z,57.11
2018-12-15T16:24:54.531Z,58.00
2018-12-15T16:27:24.347Z,58.03
2018-12-15T16:29:53.080Z,59.65
2018-12-15T16:32:22.687Z,58.91
2018-12-15T16:34:52.035Z,58.25
2018-12-15T16:37:21.544Z,59.22
2018-12-15T16:39:50.533Z,60.21
2018-12-15T16:42:19.924Z,58.23
2018-12-15T16:44:49.399Z,55.98
2018-12-15T16:47:19.109Z,56.57
2018-12-15T16:49:49.244Z,58.49
2018-12-15T16:52:18.872Z,57.56
2018-12-15T16:54:50.526Z,58.12
2018-12-15T16:57:20.368Z,58.78
2018-12-15T16:59:49.416Z,56.51
2018-12-15T17:02:18.850Z,59.81
2018-12-15T17:04:49.401Z,56.10
2018-12-15T17:07:19.422Z,56.48
2018-12-15T17:09:48.415Z,55.37
2018-12-15T17:12:17.646Z,55.89
2018-12-15T17:14:47.776Z,56.38
2018-12-15T17:17:19.217Z,58.08
2018-12-15T17:19:49.179Z,56.05
2018-12-15T17:22:18.855Z,56.96
2018-12-15T17:24:48.929Z,58.51
2018-12-15T17:27:30.953Z,58.45
2018-12-15T17:30:00.431Z,61.18
2018-12-15T17:32:29.501Z,58.77
2018-12-15T17:34:58.053Z,57.47
2018-12-15T17:37:28.665Z,59.37
2018-12-15T17:40:00.082Z,60.81
2018-12-15T17:42:30.176Z,57.30
2018-12-15T17:45:01.315Z,59.00
2018-12-15T17:47:29.907Z,59.69
2018-12-15T17:49:58.494Z,58.21
2018-12-15T17:52:29.679Z,56.57
2018-12-15T17:54:59.252Z,56.93
2018-12-15T17:57:28.042Z,55.94
2018-12-15T17:59:56.790Z,58.01
2018-12-15T18:02:27.144Z,58.71
2018-12-15T18:04:55.841Z,58.06
2018-12-15T18:07:25.819Z,60.78
2018-12-15T18:09:55.647Z,60.62
2018-12-15T18:12:25.482Z,61.21
2018-12-15T18:14:54.034Z,60.99
2018-12-15T18:17:23.105Z,58.87
2018-12-15T18:19:51.691Z,57.80
2018-12-15T18:22:21.263Z,60.85
2018-12-15T18:24:53.247Z,59.66
2018-12-15T18:27:23.970Z,58.77
2018-12-15T18:29:54.347Z,59.78
2018-12-15T18:32:28.173Z,57.20
2018-12-15T18:34:57.651Z,57.83
2018-12-15T18:37:27.297Z,59.03
2018-12-15T18:39:57.717Z,58.14
2018-12-15T18:42:26.681Z,58.77
2018-12-15T18:44:55.483Z,57.86
2018-12-15T18:47:25.146Z,57.89
2018-12-15T18:49:55.055Z,57.49
2018-12-15T18:52:27.482Z,57.81
2018-12-15T18:54:56.273Z,58.46
2018-12-15T18:57:27.158Z,58.99
2018-12-15T18:59:57.148Z,58.50
2018-12-15T19:02:26.277Z,60.05
2018-12-15T19:04:56.877Z,59.21
2018-12-15T19:07:25.579Z,58.16
2018-12-15T19:09:56.341Z,57.50
2018-12-15T19:12:27.970Z,57.89
2018-12-15T19:14:57.692Z,57.29
2018-12-15T19:17:28.178Z,59.38
2018-12-15T19:19:58.686Z,61.86
2018-12-15T19:22:27.314Z,62.11
2018-12-15T19:24:59.191Z,61.85
2018-12-15T19:27:28.370Z,59.04
2018-12-15T19:29:57.870Z,58.34
2018-12-15T19:32:28.410Z,58.76
2018-12-15T19:34:57.480Z,56.91
2018-12-15T19:37:26.134Z,60.82
2018-12-15T19:39:56.041Z,60.48
2018-12-15T19:42:27.404Z,59.47
2018-12-15T19:44:56.750Z,57.73
2018-12-15T19:47:27.242Z,56.57
2018-12-15T19:49:57.003Z,56.03
2018-12-15T19:52:26.661Z,57.40
2018-12-15T19:54:56.637Z,57.19
2018-12-15T19:57:40.687Z,57.30
2018-12-15T20:00:10.687Z,57.15
2018-12-15T20:02:39.543Z,56.73
2018-12-15T20:05:12.484Z,57.38
2018-12-15T20:07:41.108Z,58.38
2018-12-15T20:10:11.883Z,60.76
2018-12-15T20:12:41.510Z,60.73
2018-12-15T20:15:10.207Z,58.31
2018-12-15T20:17:41.038Z,57.50
2018-12-15T20:20:12.185Z,58.19
2018-12-15T20:22:42.740Z,58.86
2018-12-15T20:25:13.264Z,59.64
2018-12-15T20:27:43.510Z,58.70
2018-12-15T20:30:14.082Z,58.80
2018-12-15T20:32:44.257Z,58.41
2018-12-15T20:35:14.965Z,58.07
2018-12-15T20:37:43.702Z,57.18
2018-12-15T20:40:13.675Z,57.32
2018-12-15T20:42:44.364Z,57.27
2018-12-15T20:45:13.774Z,58.18
2018-12-15T20:47:43.361Z,57.77
2018-12-15T20:50:12.873Z,56.89
2018-12-15T20:52:47.487Z,57.99
2018-12-15T20:55:14.945Z,58.64
2018-12-15T20:57:44.936Z,60.72
2018-12-15T21:00:14.615Z,57.47
2018-12-15T21:02:43.462Z,57.81
2018-12-15T21:05:13.162Z,59.14
2018-12-15T21:07:42.370Z,57.88
2018-12-15T21:10:13.959Z,57.58
2018-12-15T21:12:42.626Z,58.66
2018-12-15T21:15:19.437Z,58.44
2018-12-15T21:17:50.126Z,58.32
2018-12-15T21:20:19.087Z,58.10
2018-12-15T21:22:47.868Z,56.89
2018-12-15T21:25:17.850Z,57.02
2018-12-15T21:27:47.067Z,57.21
2018-12-15T21:30:19.442Z,57.29
2018-12-15T21:32:48.920Z,56.85
2018-12-15T21:35:19.571Z,56.73
2018-12-15T21:37:49.192Z,55.96
2018-12-15T21:40:18.616Z,58.14
2018-12-15T21:42:50.926Z,57.02
2018-12-15T21:45:20.831Z,57.15
2018-12-15T21:47:57.397Z,57.07
2018-12-15T21:50:23.614Z,57.37
2018-12-15T21:52:53.465Z,56.55
2018-12-15T21:55:23.093Z,55.91
2018-12-15T21:57:53.161Z,56.78
2018-12-15T22:00:22.715Z,56.90
2018-12-15T22:02:51.604Z,56.69
2018-12-15T22:05:23.098Z,56.03
2018-12-15T22:07:52.821Z,54.62
2018-12-15T22:10:21.392Z,56.00
2018-12-15T22:13:01.493Z,56.93
2018-12-15T22:15:32.951Z,57.02
2018-12-15T22:18:02.106Z,55.86
2018-12-15T22:20:32.859Z,57.11
2018-12-15T22:23:02.924Z,57.73
2018-12-15T22:25:31.683Z,54.86
2018-12-15T22:28:00.194Z,55.72
2018-12-15T22:30:30.593Z,54.11
2018-12-15T22:33:00.277Z,54.16
2018-12-15T22:35:30.536Z,54.53
2018-12-15T22:38:00.059Z,57.23
2018-12-15T22:40:30.247Z,57.13
2018-12-15T22:43:00.221Z,59.57
2018-12-15T22:45:30.322Z,59.83
2018-12-15T22:48:01.029Z,59.34
2018-12-15T22:50:30.337Z,57.68
2018-12-15T22:52:59.441Z,57.29
2018-12-15T22:55:28.313Z,58.73
2018-12-15T22:57:57.239Z,56.54
2018-12-15T23:00:30.381Z,56.51
2018-12-15T23:02:59.740Z,56.68
2018-12-15T23:05:29.390Z,55.43
2018-12-15T23:07:59.868Z,56.04
2018-12-15T23:10:30.856Z,55.99
2018-12-15T23:13:00.392Z,57.15
2018-12-15T23:15:30.954Z,57.50
2018-12-15T23:17:59.470Z,56.80
2018-12-15T23:20:29.160Z,56.19
2018-12-15T23:22:58.618Z,54.32
2018-12-15T23:25:27.528Z,57.33
2018-12-15T23:27:57.290Z,57.63
2018-12-15T23:30:27.275Z,56.83
2018-12-15T23:32:57.043Z,57.62
2018-12-15T23:35:26.124Z,57.00
2018-12-15T23:37:55.451Z,60.14
2018-12-15T23:40:24.001Z,61.07
2018-12-15T23:42:55.602Z,59.63
2018-12-15T23:45:24.418Z,59.32
2018-12-15T23:47:53.697Z,58.59
2018-12-15T23:50:22.209Z,58.22
2018-12-15T23:52:54.818Z,58.04
2018-12-15T23:55:23.978Z,57.00
2018-12-15T23:57:54.432Z,59.37
